Kezdőlap
METAR-TAF:

METAR-TAF

Repülőterek :

El Dorado, Kansas, Amerikai Egyesült Államok

földrajzi szélesség: 37-46-27N, földrajzi hosszúság: 096-49-03W, magasság: 420 m

Jelenlegi meteorológiai megfigyelések

A jelentés 17 perccel ezelõtt készült, 11:55 UTC
Délkeleti szél 4 kt
Hőmérséklet 22°C
Páratartalom 100%
Légköri nyomás 1024 hPa
Látótávolság: 16.1 km
Derült ég

METAR: KEQA 201155Z AUTO 14004KT 10SM CLR 22/22 A3023 RMK AO2

Idő: 07:12 (12:12 UTC)


TAF: hiányzik

Meteorológiai megfigyelések és előrejelzések több, mint 4000 repülőtéren (METAR és TAF jelentéseket).

A térképen piros és sárga pontok jelzik az elérhető meteorológiai állomásokat.

Mozgassa az egeret a pont fölött, hogy megjelenjen az állomás neve.

Azután kattintson az időjárási megfigyelések és előrejelzések megtekintéséhez.

A térkép megváltoztatása: kattintson a fekete keresztel jelölt zöld gombra ráközelítéshez, a vonallal jelölt zöld gombra távolításhoz, vagy a zöld nyilakra a szomszédos térképek eléréséhez.


METAR-TAF: